CW9203 Weather Reports


Display with metric or nautical units.
time (UTC)temp
F
wind
direction
speed
MPH
gust
MPH
rain 1hr
in
rain 24hr
in
rain mn
in
humidity
%
barometer
mb
20190223070305 66 215 0.0 0.0 0.00 0.38 0.16 79 1004.9
20190223063305 67 254 0.0 0.0 0.00 0.39 0.16 79 1004.9
20190223061805 67 264 0.0 0.0 0.00 0.41 0.16 78 1005.1
20190223060804 67 196 0.0 0.0 0.00 0.42 0.16 78 1004.8
20190223060304 67 243 0.0 0.0 0.00 0.42 0.16 78 1005.0
20190223054804 67 232 0.0 0.0 0.00 0.43 0.16 78 1004.8
20190223054305 67 222 0.0 0.0 0.00 0.43 0.16 78 1004.8
20190223053304 67 183 0.0 7.0 0.00 0.44 0.16 79 1004.7
20190223051805 67 217 0.0 3.0 0.00 0.45 0.16 80 1004.9
20190223051304 67 169 0.0 0.0 0.00 0.46 0.16 80 1004.9
20190223050805 67 141 0.0 0.0 0.00 0.46 0.16 80 1005.1
20190223050304 67 220 0.0 0.0 0.00 0.46 0.16 80 1005.1
20190223044805 67 179 0.0 0.0 0.00 0.48 0.16 80 1005.2
20190223044305 67 217 0.0 0.0 0.00 0.48 0.16 80 1005.2
20190223043304 67 264 0.0 0.0 0.00 0.50 0.16 80 1005.2
20190223041804 67 105 0.0 0.0 0.00 0.50 0.16 80 1005.6
20190223041304 67 226 0.0 0.0 0.00 0.51 0.16 80 1005.6
20190223040806 67 256 0.0 0.0 0.00 0.52 0.16 80 1005.3
20190223040304 67 216 0.0 0.0 0.00 0.52 0.16 80 1005.6
20190223033805 68 239 0.0 0.0 0.00 0.54 0.16 80 1005.7
20190223033304 68 130 0.0 1.0 0.00 0.54 0.16 80 1005.7
20190223031305 68 126 0.0 0.0 0.00 0.56 0.16 81 1005.6
20190223030304 68 198 0.0 0.0 0.00 0.56 0.16 81 1005.8
20190223024804 68 210 0.0 0.0 0.00 0.56 0.16 81 1005.8
20190223024305 68 219 0.0 1.0 0.00 0.56 0.16 82 1005.9
20190223023805 68 226 0.0 0.0 0.00 0.56 0.16 82 1005.7
20190223023305 68 211 0.0 2.0 0.00 0.56 0.16 82 1005.7
20190223021805 68 231 0.0 0.0 0.00 0.56 0.16 84 1006.1
20190223021304 67 215 0.0 0.0 0.00 0.56 0.16 84 1006.1
20190223020804 67 171 0.0 3.0 0.00 0.56 0.16 85 1006.2
20190223020305 67 154 0.0 6.0 0.00 0.56 0.16 86 1006.3
20190223014805 67 155 0.0 0.0 0.00 0.56 0.16 86 1006.5
20190223014304 67 167 0.0 3.0 0.00 0.56 0.16 84 1006.7
20190223013805 67 179 0.0 1.0 0.00 0.56 0.16 83 1006.7
20190223010804 68 166 0.0 0.0 0.00 0.56 0.16 81 1006.9
20190223004804 69 190 0.0 0.0 0.00 0.56 0.16 79 1006.6
20190223003804 70 230 0.0 1.0 0.00 0.57 0.16 77 1006.3
20190223001805 70 152 0.0 3.0 0.00 0.57 0.16 78 1006.5
20190223000804 70 175 0.0 1.0 0.00 0.57 0.16 81 1006.6
20190223000304 70 207 0.0 8.0 0.00 0.57 0.16 81 1006.6
20190222234805 70 158 0.0 7.0 0.00 0.57 0.16 82 1006.6
20190222234304 70 162 0.0 7.0 0.00 0.57 0.16 83 1006.6
20190222233804 70 221 0.0 6.0 0.00 0.57 0.16 84 1006.7
20190222233304 69 162 0.0 6.0 0.00 0.57 0.16 84 1006.6
20190222231804 69 209 0.0 1.0 0.00 0.57 0.16 86 1006.8
20190222231305 69 144 0.0 3.0 0.00 0.57 0.16 85 1006.8
20190222230304 69 169 0.0 2.0 0.00 0.57 0.16 86 1006.7
20190222224805 69 145 0.0 1.0 0.00 0.57 0.16 88 1006.6
20190222224305 69 149 1.0 8.0 0.00 0.57 0.16 88 1006.6
20190222223804 69 163 0.0 1.0 0.00 0.57 0.16 89 1006.7
20190222223304 69 157 1.0 7.0 0.00 0.57 0.16 90 1006.8
20190222221804 68 153 0.0 0.0 0.00 0.57 0.16 92 1007.2
20190222221305 68 187 0.0 1.0 0.00 0.57 0.16 92 1007.2
20190222220805 69 189 0.0 0.0 0.00 0.57 0.16 93 1007.5
20190222214804 68 148 0.0 1.0 0.00 0.57 0.16 94 1007.5
20190222214305 68 185 0.0 0.0 0.00 0.57 0.16 95 1007.3
20190222213305 67 158 0.0 2.0 0.00 0.57 0.16 97 1007.3
20190222211805 66 144 1.0 12.0 0.00 0.57 0.16 100 1007.2
20190222211305 66 141 2.0 12.0 0.00 0.57 0.16 100 1007.2
20190222210804 66 137 0.0 1.0 0.00 0.57 0.16 100 1007.2
20190222210305 66 151 0.0 12.0 0.00 0.57 0.16 100 1007.3
20190222204804 66 153 0.0 1.0 0.02 0.57 0.16 100 1007.2
20190222204304 66 141 0.0 5.0 0.02 0.57 0.16 100 1007.1
20190222203804 65 163 0.0 10.0 0.02 0.57 0.16 100 1007.1
20190222203305 65 159 1.0 14.0 0.03 0.57 0.16 100 1007.1
20190222201805 66 159 1.0 7.0 0.05 0.57 0.16 100 1007.0
20190222200804 66 162 1.0 12.0 0.05 0.57 0.16 100 1006.9
20190222200305 66 170 2.0 12.0 0.05 0.57 0.16 100 1007.0
20190222194304 67 143 0.0 7.0 0.03 0.56 0.14 100 1007.1
20190222193804 67 190 1.0 9.0 0.02 0.55 0.13 100 1007.1
20190222193304 68 163 3.0 13.0 0.02 0.54 0.13 100 1007.1
20190222191805 68 280 0.0 0.0 0.00 0.53 0.11 100 1006.8
20190222191305 68 281 0.0 0.0 0.00 0.53 0.11 100 1006.8
20190222190805 68 272 0.0 0.0 0.00 0.53 0.11 100 1006.8
20190222184305 68 283 0.0 0.0 0.00 0.54 0.11 100 1006.6
20190222183305 68 283 0.0 0.0 0.00 0.54 0.11 100 1006.9
20190222181805 68 283 0.0 0.0 0.00 0.54 0.11 100 1006.8
20190222181304 68 283 0.0 0.0 0.00 0.54 0.11 100 1006.9
20190222180805 68 283 0.0 0.0 0.00 0.54 0.11 100 1006.9
20190222180305 68 283 0.0 0.0 0.00 0.54 0.11 100 1006.9
20190222174805 68 283 0.0 0.0 0.00 0.54 0.11 100 1007.1
20190222174304 68 283 0.0 0.0 0.00 0.54 0.11 100 1007.2
20190222173304 68 285 0.0 0.0 0.00 0.54 0.11 100 1007.1
20190222171804 68 231 0.0 0.0 0.00 0.62 0.11 100 1007.1
20190222171304 68 231 0.0 0.0 0.00 0.62 0.11 100 1007.2
20190222170804 68 238 0.0 0.0 0.00 0.62 0.11 100 1007.2
20190222163305 68 121 0.0 0.0 0.00 0.62 0.11 100 1006.9
20190222161304 68 121 0.0 0.0 0.00 0.62 0.11 100 1006.6
20190222160805 68 121 0.0 0.0 0.00 0.62 0.11 100 1006.8
20190222160305 68 121 0.0 0.0 0.00 0.62 0.11 100 1007.0
20190222154804 68 121 0.0 0.0 0.01 0.62 0.11 100 1007.3
20190222153804 68 114 0.0 0.0 0.01 0.62 0.11 100 1007.4
20190222151804 68 139 0.0 0.0 0.02 0.62 0.11 100 1007.5
20190222151304 68 146 0.0 0.0 0.02 0.62 0.11 100 1007.4
20190222150304 68 135 0.0 0.0 0.02 0.62 0.11 100 1007.5
20190222144805 68 167 0.0 0.0 0.02 0.61 0.10 100 1007.8
20190222144304 69 205 0.0 0.0 0.02 0.61 0.10 100 1007.9
20190222143804 69 176 0.0 0.0 0.02 0.61 0.10 100 1008.1
20190222141305 69 176 0.0 0.0 0.02 0.60 0.09 100 1008.0
20190222140805 69 130 0.0 0.0 0.02 0.60 0.09 100 1008.0
20190222140305 69 325 0.0 0.0 0.02 0.60 0.09 100 1008.0
20190222134805 69 325 0.0 0.0 0.04 0.60 0.09 100 1008.3
20190222133805 69 325 0.0 0.0 0.04 0.59 0.08 100 1008.6
20190222133304 69 325 0.0 0.0 0.04 0.59 0.08 100 1008.6
20190222131304 69 12 0.0 0.0 0.06 0.58 0.07 100 1008.8
20190222130805 69 38 0.0 0.0 0.06 0.58 0.07 100 1008.8
20190222130304 69 26 0.0 0.0 0.05 0.57 0.06 100 1008.6
20190222124804 69 5 0.0 0.0 0.05 0.56 0.05 100 1008.9
20190222124304 69 31 0.0 0.0 0.05 0.56 0.05 100 1009.0
20190222123804 69 22 0.0 0.0 0.04 0.55 0.04 100 1009.1
20190222121805 69 355 0.0 0.0 0.02 0.54 0.02 100 1009.9
20190222121304 69 11 0.0 0.0 0.02 0.53 0.02 100 1010.0
20190222120305 69 24 0.0 5.0 0.02 0.53 0.02 100 1010.0
20190222114804 69 30 0.0 0.0 0.01 0.51 0.00 100 1010.0
20190222114305 69 1 0.0 0.0 0.01 0.51 0.00 100 1010.0
20190222113805 69 13 0.0 1.0 0.02 0.51 0.00 100 1009.9
20190222111805 69 323 0.0 0.0 0.03 0.51 0.00 100 1010.3
20190222111304 69 334 0.0 0.0 0.04 0.51 0.00 100 1010.2
20190222110304 69 323 0.0 0.0 0.06 0.51 0.00 100 1010.2
20190222104804 69 13 0.0 1.0 0.06 0.50 0.50 100 1010.6
20190222103804 68 323 0.0 0.0 0.07 0.50 0.50 100 1010.7
20190222103305 68 20 0.0 12.0 0.08 0.50 0.50 100 1010.5
20190222101805 68 358 0.0 1.0 0.08 0.48 0.48 100 1010.6
20190222101305 69 326 0.0 0.0 0.08 0.47 0.47 100 1010.9
20190222100805 69 342 0.0 2.0 0.08 0.46 0.46 100 1011.1
20190222100304 69 20 0.0 0.0 0.07 0.46 0.46 100 1011.4
20190222094805 69 7 1.0 8.0 0.09 0.44 0.44 100 1011.5
20190222093805 69 0 0.0 7.0 0.08 0.43 0.43 100 1011.4
20190222093305 69 11 0.0 10.0 0.07 0.42 0.42 100 1011.4
20190222091804 69 2 0.0 12.0 0.06 0.40 0.40 100 1011.1
20190222090804 69 17 1.0 13.0 0.05 0.39 0.39 100 1011.0
20190222090304 69 21 3.0 13.0 0.06 0.39 0.39 100 1011.0
20190222084304 68 8 0.0 0.0 0.02 0.35 0.35 100 1012.0
20190222083804 68 27 0.0 7.0 0.02 0.35 0.35 100 1012.0
20190222083305 69 15 0.0 13.0 0.02 0.35 0.35 100 1012.0
20190222081805 69 24 1.0 10.0 0.03 0.34 0.34 100 1011.8
20190222081304 69 23 0.0 0.0 0.03 0.34 0.34 100 1011.8
20190222080305 68 23 0.0 5.0 0.03 0.33 0.33 100 1011.8
20190222073804 68 313 0.0 0.0 0.05 0.32 0.32 100 1012.2
20190222073304 68 11 1.0 12.0 0.05 0.32 0.32 100 1011.8
20190222071805 68 21 0.0 1.0 0.05 0.31 0.31 100 1012.0
20190222071305 68 37 0.0 1.0 0.05 0.31 0.31 100 1012.1